createdAt,value
2022-11-21T00:01:21.246Z,4.00
2022-11-21T00:03:48.176Z,4.00
2022-11-21T00:06:15.776Z,4.00
2022-11-21T00:08:42.680Z,4.00
2022-11-21T00:11:09.552Z,4.00
2022-11-21T00:13:37.043Z,4.00
2022-11-21T00:16:09.287Z,4.00
2022-11-21T00:18:36.443Z,4.00
2022-11-21T00:21:08.242Z,4.00
2022-11-21T00:23:35.044Z,4.00
2022-11-21T00:26:09.464Z,4.00
2022-11-21T00:28:37.122Z,4.00
2022-11-21T00:31:04.189Z,4.00
2022-11-21T00:33:34.388Z,4.10
2022-11-21T00:36:11.460Z,4.00
2022-11-21T00:38:39.335Z,4.00
2022-11-21T00:41:06.615Z,4.10
2022-11-21T00:43:34.054Z,4.10
2022-11-21T00:46:02.980Z,4.10
2022-11-21T00:48:30.999Z,4.10
2022-11-21T00:51:00.532Z,4.10
2022-11-21T00:53:27.960Z,4.10
2022-11-21T00:55:54.686Z,4.10
2022-11-21T00:58:21.406Z,4.10
2022-11-21T01:00:49.654Z,4.10
2022-11-21T01:03:17.763Z,4.10
2022-11-21T01:05:45.067Z,4.10
2022-11-21T01:08:11.738Z,4.10
2022-11-21T01:10:39.673Z,4.00
2022-11-21T01:13:06.476Z,4.00
2022-11-21T01:15:34.401Z,4.00
2022-11-21T01:18:03.448Z,4.00
2022-11-21T01:20:32.144Z,4.10
2022-11-21T01:23:01.243Z,4.10
2022-11-21T01:25:27.963Z,4.10
2022-11-21T01:27:54.609Z,4.10
2022-11-21T01:30:21.350Z,4.10
2022-11-21T01:32:49.722Z,4.10
2022-11-21T01:35:17.345Z,4.10
2022-11-21T01:37:47.364Z,4.10
2022-11-21T01:40:15.060Z,4.10
2022-11-21T01:42:54.643Z,4.20
2022-11-21T01:45:52.549Z,4.20
2022-11-21T01:48:20.516Z,4.20
2022-11-21T01:50:47.488Z,4.20
2022-11-21T01:53:14.301Z,4.20
2022-11-21T01:55:44.571Z,4.10
2022-11-21T01:58:12.014Z,4.20
2022-11-21T02:00:40.692Z,4.20
2022-11-21T02:03:13.186Z,4.20
2022-11-21T02:05:41.266Z,4.20
2022-11-21T02:08:18.418Z,4.20
2022-11-21T02:11:02.854Z,4.20
2022-11-21T02:13:29.558Z,4.20
2022-11-21T02:15:57.171Z,4.10
2022-11-21T02:18:23.735Z,4.10
2022-11-21T02:21:00.467Z,4.10
2022-11-21T02:24:13.264Z,4.10
2022-11-21T02:26:41.311Z,4.10
2022-11-21T02:29:08.277Z,4.10
2022-11-21T02:31:34.990Z,4.00
2022-11-21T02:34:01.681Z,4.00
2022-11-21T02:36:47.463Z,3.90
2022-11-21T02:39:26.161Z,3.80
2022-11-21T02:42:20.820Z,3.80
2022-11-21T02:45:46.053Z,3.70
2022-11-21T02:48:14.110Z,3.70
2022-11-21T02:50:45.621Z,3.70
2022-11-21T02:53:15.132Z,3.60
2022-11-21T02:55:42.459Z,3.50
2022-11-21T02:58:12.293Z,3.50
2022-11-21T03:00:42.995Z,3.40
2022-11-21T03:03:10.019Z,3.40
2022-11-21T03:05:37.780Z,3.40
2022-11-21T03:08:05.003Z,3.40
2022-11-21T03:10:31.938Z,3.50
2022-11-21T03:13:03.243Z,3.50
2022-11-21T03:15:33.036Z,3.50
2022-11-21T03:18:02.645Z,3.50
2022-11-21T03:20:34.533Z,3.60
2022-11-21T03:23:05.367Z,3.70
2022-11-21T03:25:32.308Z,3.70
2022-11-21T03:27:59.067Z,3.80
2022-11-21T03:30:27.115Z,3.80
2022-11-21T03:32:57.354Z,3.80
2022-11-21T03:35:25.332Z,3.80
2022-11-21T03:37:52.049Z,3.80
2022-11-21T03:40:20.400Z,3.80
2022-11-21T03:42:49.498Z,3.70
2022-11-21T03:45:16.377Z,3.70
2022-11-21T03:47:43.360Z,3.70
2022-11-21T03:50:10.745Z,3.60
2022-11-21T03:52:39.497Z,3.50
2022-11-21T03:55:06.474Z,3.50
2022-11-21T03:57:33.284Z,3.40
2022-11-21T03:59:59.986Z,3.30
2022-11-21T04:02:26.731Z,3.20
2022-11-21T04:04:56.001Z,3.10
2022-11-21T04:07:25.284Z,3.00
2022-11-21T04:09:52.021Z,2.90
2022-11-21T04:12:19.874Z,2.90
2022-11-21T04:14:46.543Z,2.90
2022-11-21T04:17:13.244Z,2.80
2022-11-21T04:19:40.016Z,2.80
2022-11-21T04:22:06.682Z,2.80
2022-11-21T04:24:33.456Z,2.80
2022-11-21T04:27:00.513Z,2.80
2022-11-21T04:29:27.253Z,2.70
2022-11-21T04:31:53.922Z,2.70
2022-11-21T04:34:20.575Z,2.60
2022-11-21T04:36:47.457Z,2.60
2022-11-21T04:39:14.203Z,2.60
2022-11-21T04:41:40.900Z,2.60
2022-11-21T04:44:08.707Z,2.60
2022-11-21T04:46:35.403Z,2.50
2022-11-21T04:49:02.182Z,2.50
2022-11-21T04:51:28.818Z,2.40
2022-11-21T04:53:55.633Z,2.40
2022-11-21T04:56:22.922Z,2.40
2022-11-21T04:58:52.734Z,2.30
2022-11-21T05:01:22.720Z,2.30
2022-11-21T05:03:49.704Z,2.30
2022-11-21T05:06:16.544Z,2.20
2022-11-21T05:08:46.547Z,2.20
2022-11-21T05:11:34.341Z,2.20
2022-11-21T05:14:01.156Z,2.30
2022-11-21T05:16:28.026Z,2.30
2022-11-21T05:18:54.805Z,2.30
2022-11-21T05:21:21.477Z,2.40
2022-11-21T05:23:49.306Z,2.40
2022-11-21T05:26:16.050Z,2.50
2022-11-21T05:28:42.872Z,2.60
2022-11-21T05:31:09.684Z,2.60
2022-11-21T05:33:36.378Z,2.60
2022-11-21T05:36:03.171Z,2.70
2022-11-21T05:38:29.907Z,2.70
2022-11-21T05:40:57.893Z,2.70
2022-11-21T05:43:43.128Z,2.70
2022-11-21T05:46:10.098Z,2.70
2022-11-21T05:48:36.934Z,2.80
2022-11-21T05:51:06.809Z,2.80
2022-11-21T05:53:34.647Z,2.80
2022-11-21T05:56:13.090Z,2.80
2022-11-21T05:58:40.475Z,2.90
2022-11-21T06:01:09.307Z,3.00
2022-11-21T06:03:39.162Z,3.10
2022-11-21T06:06:09.807Z,3.10
2022-11-21T06:08:39.099Z,3.20
2022-11-21T06:11:07.605Z,3.20
2022-11-21T06:13:34.847Z,3.30
2022-11-21T06:16:04.615Z,3.30
2022-11-21T06:18:33.973Z,3.30
2022-11-21T06:21:02.853Z,3.40
2022-11-21T06:23:29.716Z,3.40
2022-11-21T06:25:58.258Z,3.40
2022-11-21T06:28:26.491Z,3.40
2022-11-21T06:30:55.687Z,3.40
2022-11-21T06:33:22.653Z,3.40
2022-11-21T06:36:01.465Z,3.40
2022-11-21T06:38:28.218Z,3.40
2022-11-21T06:40:55.113Z,3.40
2022-11-21T06:43:21.894Z,3.40
2022-11-21T06:45:48.678Z,3.40
2022-11-21T06:48:16.593Z,3.50
2022-11-21T06:50:46.161Z,3.50
2022-11-21T06:53:12.846Z,3.50
2022-11-21T06:55:41.686Z,3.50
2022-11-21T06:58:08.529Z,3.50
2022-11-21T07:00:36.442Z,3.60
2022-11-21T07:03:04.113Z,3.60
2022-11-21T07:05:33.078Z,3.60
2022-11-21T07:08:01.602Z,3.60
2022-11-21T07:10:30.484Z,3.60
2022-11-21T07:13:17.050Z,3.70
2022-11-21T07:15:44.615Z,3.80
2022-11-21T07:18:11.668Z,3.80
2022-11-21T07:20:39.682Z,3.90
2022-11-21T07:23:09.586Z,3.90
2022-11-21T07:25:37.110Z,4.00
2022-11-21T07:28:04.393Z,4.10
2022-11-21T07:30:31.455Z,4.10
2022-11-21T07:32:59.776Z,4.20
2022-11-21T07:35:27.649Z,4.20
2022-11-21T07:37:54.586Z,4.20
2022-11-21T07:40:22.281Z,4.20
2022-11-21T07:42:49.111Z,4.30
2022-11-21T07:45:17.868Z,4.30
2022-11-21T07:47:44.838Z,4.30
2022-11-21T07:50:12.905Z,4.30
2022-11-21T07:52:40.006Z,4.30
2022-11-21T07:55:08.708Z,4.30
2022-11-21T07:57:35.519Z,4.30
2022-11-21T08:00:02.424Z,4.40
2022-11-21T08:02:29.295Z,4.40
2022-11-21T08:04:56.133Z,4.40
2022-11-21T08:07:24.739Z,4.50
2022-11-21T08:09:51.637Z,4.50
2022-11-21T08:12:18.685Z,4.50
2022-11-21T08:14:45.511Z,4.60
2022-11-21T08:17:14.636Z,4.60
2022-11-21T08:19:41.826Z,4.70
2022-11-21T08:22:08.564Z,4.70
2022-11-21T08:24:35.306Z,4.80
2022-11-21T08:27:03.462Z,4.90
2022-11-21T08:29:30.476Z,5.00
2022-11-21T08:31:57.899Z,5.10
2022-11-21T08:34:24.677Z,5.20
2022-11-21T08:36:51.466Z,5.30
2022-11-21T08:39:21.076Z,5.40
2022-11-21T08:42:02.965Z,5.40
2022-11-21T08:44:34.348Z,5.60
2022-11-21T08:47:02.299Z,5.60
2022-11-21T08:49:30.225Z,5.60
2022-11-21T08:51:59.028Z,5.80
2022-11-21T08:54:26.098Z,5.80
2022-11-21T08:56:53.596Z,5.80
2022-11-21T08:59:21.767Z,5.80
2022-11-21T09:01:48.553Z,5.90
2022-11-21T09:04:17.444Z,5.90
2022-11-21T09:06:46.071Z,5.90
2022-11-21T09:09:14.975Z,6.00
2022-11-21T09:11:41.881Z,6.10
2022-11-21T09:14:27.391Z,6.20
2022-11-21T09:17:12.735Z,6.30
2022-11-21T09:19:39.510Z,6.30
2022-11-21T09:22:06.255Z,6.40
2022-11-21T09:24:33.504Z,6.50
2022-11-21T09:27:00.285Z,6.50
2022-11-21T09:29:27.506Z,6.60
2022-11-21T09:31:54.594Z,6.60
2022-11-21T09:34:21.517Z,6.70
2022-11-21T09:36:49.720Z,6.80
2022-11-21T09:39:19.734Z,6.90
2022-11-21T09:42:06.848Z,7.00
2022-11-21T09:45:01.491Z,7.20
2022-11-21T09:47:34.826Z,7.30
2022-11-21T09:50:31.116Z,7.40
2022-11-21T09:53:06.342Z,7.60
2022-11-21T09:55:35.816Z,7.70
2022-11-21T09:58:06.509Z,7.90
2022-11-21T10:00:36.593Z,7.90
2022-11-21T10:03:03.779Z,7.90
2022-11-21T10:05:41.446Z,7.80
2022-11-21T10:08:22.253Z,7.70
2022-11-21T10:11:09.211Z,7.50
2022-11-21T10:13:46.519Z,7.40
2022-11-21T10:16:47.393Z,7.30
2022-11-21T10:19:43.392Z,7.30
2022-11-21T10:22:34.340Z,7.40
2022-11-21T10:25:27.480Z,7.40
2022-11-21T10:28:18.888Z,7.50
2022-11-21T10:30:47.620Z,7.50
2022-11-21T10:33:38.547Z,7.60
2022-11-21T10:36:40.914Z,7.60
2022-11-21T10:39:19.081Z,7.60
2022-11-21T10:42:02.987Z,7.60
2022-11-21T10:44:48.902Z,7.60
2022-11-21T10:47:15.560Z,7.50
2022-11-21T10:49:44.415Z,7.50
2022-11-21T10:52:25.452Z,7.40
2022-11-21T10:55:03.593Z,7.30
2022-11-21T10:57:45.278Z,7.40
2022-11-21T11:00:14.942Z,7.40
2022-11-21T11:02:43.553Z,7.50
2022-11-21T11:05:31.222Z,7.60
2022-11-21T11:08:01.906Z,7.80
2022-11-21T11:10:29.827Z,8.00
2022-11-21T11:16:16.885Z,8.40
2022-11-21T11:19:08.688Z,8.40
2022-11-21T11:21:46.226Z,8.40
2022-11-21T11:24:12.913Z,8.30
2022-11-21T11:26:49.049Z,8.20
2022-11-21T11:29:20.485Z,8.10
2022-11-21T11:31:58.142Z,8.10
2022-11-21T11:34:37.212Z,8.20
2022-11-21T11:37:39.869Z,8.30
2022-11-21T11:40:40.822Z,8.50
2022-11-21T11:43:55.191Z,8.70
2022-11-21T11:47:13.041Z,8.90
2022-11-21T11:50:14.484Z,9.10
2022-11-21T11:52:56.568Z,9.30
2022-11-21T11:55:34.141Z,9.70
2022-11-21T11:58:05.953Z,9.80
2022-11-21T12:00:57.518Z,10.00
2022-11-21T12:03:43.574Z,10.20
2022-11-21T12:06:38.260Z,10.20
2022-11-21T12:09:37.114Z,10.10
2022-11-21T12:12:16.295Z,10.20
2022-11-21T12:15:29.004Z,10.20
2022-11-21T12:18:17.326Z,10.20
2022-11-21T12:20:56.321Z,10.00
2022-11-21T12:23:47.417Z,9.90
2022-11-21T12:26:20.230Z,9.80
2022-11-21T12:29:14.693Z,9.50
2022-11-21T12:32:23.102Z,9.40
2022-11-21T12:35:03.025Z,9.30
2022-11-21T12:37:47.900Z,9.00
2022-11-21T12:40:39.107Z,8.80
2022-11-21T12:43:30.749Z,8.70
2022-11-21T12:46:21.224Z,8.60
2022-11-21T12:49:43.617Z,8.50
2022-11-21T12:52:40.694Z,8.40
2022-11-21T12:55:35.716Z,8.30
2022-11-21T12:58:26.583Z,8.10
2022-11-21T13:01:02.438Z,8.00
2022-11-21T13:03:48.014Z,7.90
2022-11-21T13:06:23.731Z,7.80
2022-11-21T13:08:54.323Z,7.80
2022-11-21T13:12:00.471Z,7.70
2022-11-21T13:14:52.554Z,7.70
2022-11-21T13:17:28.515Z,7.60
2022-11-21T13:20:25.986Z,7.50
2022-11-21T13:22:55.397Z,7.50
2022-11-21T13:25:42.142Z,7.50
2022-11-21T13:28:12.178Z,7.50
2022-11-21T13:30:54.766Z,7.40
2022-11-21T13:33:48.215Z,7.40
2022-11-21T13:36:30.432Z,7.40
2022-11-21T13:38:57.153Z,7.40
2022-11-21T13:41:55.006Z,7.50
2022-11-21T13:44:34.542Z,7.50
2022-11-21T13:47:25.872Z,7.50
2022-11-21T13:50:10.969Z,7.50
2022-11-21T13:52:43.811Z,7.40
2022-11-21T13:55:41.648Z,7.30
2022-11-21T13:58:32.412Z,7.20
2022-11-21T14:01:34.579Z,7.10
2022-11-21T14:04:32.246Z,7.00
2022-11-21T14:07:30.073Z,7.00
2022-11-21T14:10:01.541Z,6.80
2022-11-21T14:12:41.006Z,6.80
2022-11-21T14:15:38.355Z,6.70
2022-11-21T14:18:15.423Z,6.60
2022-11-21T14:20:58.387Z,6.50
2022-11-21T14:23:35.121Z,6.50
2022-11-21T14:26:14.855Z,6.40
2022-11-21T14:28:41.540Z,6.30
2022-11-21T14:31:12.896Z,6.30
2022-11-21T14:33:41.389Z,6.20
2022-11-21T14:36:09.966Z,6.20
2022-11-21T14:39:02.484Z,6.10
2022-11-21T14:41:39.078Z,6.00
2022-11-21T14:44:14.929Z,6.00
2022-11-21T14:46:42.564Z,5.90
2022-11-21T14:49:18.617Z,5.80
2022-11-21T14:51:59.068Z,5.80
2022-11-21T14:58:01.659Z,5.60
2022-11-21T15:00:58.132Z,5.50
2022-11-21T15:03:26.113Z,5.40
2022-11-21T15:06:07.439Z,5.30
2022-11-21T15:11:56.945Z,5.10
2022-11-21T15:14:59.808Z,5.00
2022-11-21T15:17:28.075Z,4.90
2022-11-21T15:20:11.456Z,4.80
2022-11-21T15:22:41.678Z,4.70
2022-11-21T15:25:21.994Z,4.60
2022-11-21T15:28:02.255Z,4.50
2022-11-21T15:30:30.780Z,4.40
2022-11-21T15:33:03.190Z,4.30
2022-11-21T15:35:57.497Z,4.30
2022-11-21T15:38:33.653Z,4.20
2022-11-21T15:41:09.768Z,4.10
2022-11-21T15:43:49.507Z,4.00
2022-11-21T15:46:22.326Z,3.90
2022-11-21T15:49:03.574Z,3.90
2022-11-21T15:52:06.267Z,3.80
2022-11-21T15:54:29.257Z,3.70
2022-11-21T15:56:59.973Z,3.60
2022-11-21T15:59:27.154Z,3.60
2022-11-21T16:01:54.216Z,3.50
2022-11-21T16:04:25.505Z,3.50
2022-11-21T16:06:53.679Z,3.40
2022-11-21T16:09:21.649Z,3.30
2022-11-21T16:11:48.854Z,3.30
2022-11-21T16:14:18.431Z,3.20
2022-11-21T16:16:47.860Z,3.20
2022-11-21T16:19:15.796Z,3.10
2022-11-21T16:21:44.067Z,3.00
2022-11-21T16:24:13.105Z,2.90
2022-11-21T16:26:40.008Z,2.90
2022-11-21T16:29:11.083Z,2.80
2022-11-21T16:31:38.438Z,2.80
2022-11-21T16:34:05.513Z,2.70
2022-11-21T16:36:34.746Z,2.70
2022-11-21T16:39:29.480Z,2.60
2022-11-21T16:41:56.654Z,2.50
2022-11-21T16:44:23.529Z,2.50
2022-11-21T16:46:52.851Z,2.40
2022-11-21T16:49:20.370Z,2.40
2022-11-21T16:51:48.587Z,2.30
2022-11-21T16:54:18.160Z,2.30
2022-11-21T16:56:45.200Z,2.30
2022-11-21T16:59:14.311Z,2.20
2022-11-21T17:01:41.418Z,2.10
2022-11-21T17:04:14.072Z,2.10
2022-11-21T17:06:43.918Z,2.00
2022-11-21T17:09:10.741Z,2.00
2022-11-21T17:11:38.522Z,1.90
2022-11-21T17:14:06.640Z,1.90
2022-11-21T17:16:34.659Z,1.80
2022-11-21T17:19:04.430Z,1.80
2022-11-21T17:21:32.822Z,1.80
2022-11-21T17:23:59.714Z,1.70
2022-11-21T17:26:32.208Z,1.70
2022-11-21T17:29:01.256Z,1.60
2022-11-21T17:31:35.135Z,1.60
2022-11-21T17:34:02.248Z,1.50
2022-11-21T17:36:34.575Z,1.50
2022-11-21T17:39:04.234Z,1.50
2022-11-21T17:41:34.184Z,1.50
2022-11-21T17:44:01.705Z,1.40
2022-11-21T17:46:31.372Z,1.40
2022-11-21T17:49:00.634Z,1.40
2022-11-21T17:51:33.293Z,1.40
2022-11-21T17:54:01.648Z,1.30
2022-11-21T17:56:31.239Z,1.30
2022-11-21T17:59:02.187Z,1.30
2022-11-21T18:01:29.566Z,1.20
2022-11-21T18:03:58.874Z,1.20
2022-11-21T18:06:31.090Z,1.20
2022-11-21T18:08:58.784Z,1.20
2022-11-21T18:11:28.149Z,1.10
2022-11-21T18:13:57.585Z,1.10
2022-11-21T18:16:27.943Z,1.00
2022-11-21T18:19:02.553Z,1.00
2022-11-21T18:21:41.650Z,0.90
2022-11-21T18:24:16.589Z,0.90
2022-11-21T18:26:50.087Z,0.90
2022-11-21T18:32:14.592Z,0.80
2022-11-21T18:34:50.662Z,0.70
2022-11-21T18:37:25.495Z,0.70
2022-11-21T18:40:02.381Z,0.60
2022-11-21T18:42:45.031Z,0.60
2022-11-21T18:45:17.200Z,0.60
2022-11-21T18:47:45.198Z,0.60
2022-11-21T18:50:14.674Z,0.50
2022-11-21T18:52:46.996Z,0.40
2022-11-21T18:55:15.632Z,0.40
2022-11-21T18:57:42.675Z,0.40
2022-11-21T19:00:12.757Z,0.40
2022-11-21T19:02:48.042Z,0.30
2022-11-21T19:05:20.298Z,0.30
2022-11-21T19:07:47.843Z,0.30
2022-11-21T19:10:41.414Z,0.30
2022-11-21T19:13:02.402Z,0.30
2022-11-21T19:15:29.636Z,0.20
2022-11-21T19:17:56.741Z,0.20
2022-11-21T19:20:23.845Z,0.20
2022-11-21T19:22:52.370Z,0.10
2022-11-21T19:25:21.443Z,0.10
2022-11-21T19:27:48.432Z,0.10
2022-11-21T19:30:24.374Z,0.10
2022-11-21T19:32:51.245Z,0.10
2022-11-21T19:35:19.458Z,0.00
2022-11-21T19:37:46.802Z,0.00
2022-11-21T19:40:13.994Z,0.00
2022-11-21T19:42:42.847Z,0.00
2022-11-21T19:45:09.891Z,0.00
2022-11-21T19:47:36.886Z,0.00
2022-11-21T19:50:04.039Z,0.00
2022-11-21T19:52:40.819Z,-0.10
2022-11-21T19:55:13.850Z,-0.10
2022-11-21T19:57:48.780Z,-0.10
2022-11-21T20:00:18.755Z,-0.20
2022-11-21T20:02:57.001Z,-0.20
2022-11-21T20:05:29.793Z,-0.20
2022-11-21T20:08:02.994Z,-0.20
2022-11-21T20:10:34.227Z,-0.30
2022-11-21T20:13:05.861Z,-0.30
2022-11-21T20:15:38.869Z,-0.30
2022-11-21T20:18:08.466Z,-0.30
2022-11-21T20:20:37.719Z,-0.30
2022-11-21T20:23:05.751Z,-0.40
2022-11-21T20:25:38.742Z,-0.40
2022-11-21T20:28:11.457Z,-0.40
2022-11-21T20:30:39.844Z,-0.40
2022-11-21T20:33:11.118Z,-0.40
2022-11-21T20:35:46.505Z,-0.40
2022-11-21T20:38:13.444Z,-0.40
2022-11-21T20:40:42.095Z,-0.40
2022-11-21T20:43:13.736Z,-0.40
2022-11-21T20:46:08.873Z,-0.30
2022-11-21T20:48:29.902Z,-0.40
2022-11-21T20:52:19.694Z,-0.40
2022-11-21T20:53:57.175Z,-0.30
2022-11-21T20:56:28.070Z,-0.30
2022-11-21T20:58:56.190Z,-0.30
2022-11-21T21:01:24.300Z,-0.30
2022-11-21T21:03:53.456Z,-0.20
2022-11-21T21:06:21.166Z,-0.20
2022-11-21T21:08:49.595Z,-0.20
2022-11-21T21:11:44.505Z,-0.20
2022-11-21T21:14:07.712Z,-0.20
2022-11-21T21:16:34.708Z,-0.10
2022-11-21T21:19:01.700Z,-0.20
2022-11-21T21:21:33.163Z,-0.20
2022-11-21T21:24:11.176Z,-0.20
2022-11-21T21:26:48.921Z,-0.20
2022-11-21T21:29:19.184Z,-0.20
2022-11-21T21:31:51.594Z,-0.20
2022-11-21T21:34:20.409Z,-0.20
2022-11-21T21:36:47.711Z,-0.20
2022-11-21T21:39:15.111Z,-0.20
2022-11-21T21:41:47.352Z,-0.20
2022-11-21T21:44:15.164Z,-0.20
2022-11-21T21:46:42.410Z,-0.20
2022-11-21T21:49:09.404Z,-0.30
2022-11-21T21:51:40.394Z,-0.30
2022-11-21T21:54:07.850Z,-0.40
2022-11-21T21:56:34.900Z,-0.40
2022-11-21T21:59:02.006Z,-0.40
2022-11-21T22:01:31.509Z,-0.50
2022-11-21T22:04:03.014Z,-0.60
2022-11-21T22:06:32.419Z,-0.60
2022-11-21T22:08:59.925Z,-0.60
2022-11-21T22:11:29.229Z,-0.70
2022-11-21T22:14:01.715Z,-0.70
2022-11-21T22:16:29.742Z,-0.70
2022-11-21T22:18:57.390Z,-0.80
2022-11-21T22:21:26.851Z,-0.80
2022-11-21T22:24:24.967Z,-0.80
2022-11-21T22:26:42.095Z,-0.80
2022-11-21T22:29:09.387Z,-0.90
2022-11-21T22:31:38.912Z,-0.90
2022-11-21T22:34:06.005Z,-0.90
2022-11-21T22:36:33.097Z,-0.90
2022-11-21T22:39:00.054Z,-1.00
2022-11-21T22:41:27.972Z,-1.00
2022-11-21T22:43:58.304Z,-1.00
2022-11-21T22:46:27.360Z,-1.00
2022-11-21T22:48:54.713Z,-0.90
2022-11-21T22:51:30.760Z,-1.00
2022-11-21T22:53:58.073Z,-0.90
2022-11-21T22:56:26.648Z,-0.90
2022-11-21T22:58:53.599Z,-0.90
2022-11-21T23:01:23.497Z,-0.80
2022-11-21T23:03:51.280Z,-0.80
2022-11-21T23:06:24.132Z,-0.80
2022-11-21T23:08:52.760Z,-0.80
2022-11-21T23:11:23.094Z,-0.90
2022-11-21T23:13:51.255Z,-0.90
2022-11-21T23:16:19.637Z,-0.90
2022-11-21T23:18:46.958Z,-0.90
2022-11-21T23:21:14.805Z,-0.90
2022-11-21T23:23:46.464Z,-0.80
2022-11-21T23:26:14.583Z,-0.80
2022-11-21T23:28:41.891Z,-0.80
2022-11-21T23:31:12.163Z,-0.80
2022-11-21T23:33:39.262Z,-0.80
2022-11-21T23:36:06.410Z,-0.70
2022-11-21T23:38:35.534Z,-0.70
2022-11-21T23:41:02.608Z,-0.70
2022-11-21T23:43:29.620Z,-0.70
2022-11-21T23:45:56.580Z,-0.70
2022-11-21T23:48:24.323Z,-0.60
2022-11-21T23:50:52.644Z,-0.60
2022-11-21T23:53:20.554Z,-0.60
2022-11-21T23:55:49.719Z,-0.60
2022-11-21T23:58:17.220Z,-0.60
